createdAt,value
2018-07-08T00:01:28.954Z,3.47
2018-07-08T00:03:56.342Z,3.50
2018-07-08T00:06:23.685Z,3.70
2018-07-08T00:08:51.119Z,3.73
2018-07-08T00:11:18.517Z,4.80
2018-07-08T00:13:46.107Z,4.40
2018-07-08T00:16:13.551Z,4.80
2018-07-08T00:18:41.158Z,4.73
2018-07-08T00:21:08.562Z,4.63
2018-07-08T00:23:36.016Z,4.53
2018-07-08T00:26:03.486Z,5.00
2018-07-08T00:28:30.844Z,5.00
2018-07-08T00:30:58.197Z,4.30
2018-07-08T00:33:25.542Z,4.60
2018-07-08T00:35:52.905Z,4.60
2018-07-08T00:38:20.251Z,4.70
2018-07-08T00:40:48.426Z,4.60
2018-07-08T00:43:15.790Z,4.93
2018-07-08T00:45:43.629Z,4.63
2018-07-08T00:48:11.009Z,4.37
2018-07-08T00:50:38.393Z,4.73
2018-07-08T00:53:05.886Z,4.87
2018-07-08T00:55:33.278Z,5.07
2018-07-08T00:58:00.699Z,4.97
2018-07-08T01:00:33.561Z,4.87
2018-07-08T01:03:02.181Z,4.70
2018-07-08T01:05:29.960Z,5.30
2018-07-08T01:07:57.397Z,5.07
2018-07-08T01:10:24.768Z,4.87
2018-07-08T01:12:52.137Z,5.13
2018-07-08T01:15:19.610Z,5.10
2018-07-08T01:17:47.965Z,4.70
2018-07-08T01:20:15.433Z,4.80
2018-07-08T01:22:42.867Z,4.90
2018-07-08T01:25:12.208Z,4.30
2018-07-08T01:27:39.949Z,4.33
2018-07-08T01:30:07.306Z,4.30
2018-07-08T01:32:35.404Z,4.27
2018-07-08T01:35:03.008Z,4.37
2018-07-08T01:37:30.726Z,4.60
2018-07-08T01:39:58.139Z,4.97
2018-07-08T01:42:25.507Z,5.50
2018-07-08T01:44:52.826Z,5.67
2018-07-08T01:47:20.212Z,5.47
2018-07-08T01:49:48.144Z,5.90
2018-07-08T01:52:15.487Z,5.47
2018-07-08T01:54:42.950Z,5.57
2018-07-08T01:57:10.347Z,6.50
2018-07-08T01:59:37.826Z,5.20
2018-07-08T02:02:05.775Z,6.57
2018-07-08T02:04:33.168Z,6.50
2018-07-08T02:07:00.631Z,5.90
2018-07-08T02:09:28.137Z,6.43
2018-07-08T02:11:55.614Z,6.40
2018-07-08T02:14:23.176Z,6.20
2018-07-08T02:16:50.888Z,7.67
2018-07-08T02:19:18.248Z,6.40
2018-07-08T02:21:45.745Z,7.10
2018-07-08T02:24:13.320Z,6.97
2018-07-08T02:26:40.955Z,6.90
2018-07-08T02:29:08.281Z,6.90
2018-07-08T02:31:35.664Z,7.20
2018-07-08T02:34:03.132Z,8.47
2018-07-08T02:36:30.544Z,8.10
2018-07-08T02:38:58.336Z,8.50
2018-07-08T02:41:25.805Z,8.23
2018-07-08T02:43:53.392Z,8.20
2018-07-08T02:46:20.826Z,8.67
2018-07-08T02:48:48.258Z,7.83
2018-07-08T02:51:15.565Z,6.70
2018-07-08T02:53:42.877Z,7.90
2018-07-08T02:56:10.249Z,7.30
2018-07-08T02:58:37.568Z,7.03
2018-07-08T03:01:04.908Z,8.07
2018-07-08T03:03:32.263Z,7.40
2018-07-08T03:05:59.607Z,7.63
2018-07-08T03:08:27.467Z,6.83
2018-07-08T03:10:54.880Z,6.27
2018-07-08T03:13:23.728Z,4.20
2018-07-08T03:15:51.089Z,5.37
2018-07-08T03:18:18.469Z,5.33
2018-07-08T03:20:46.921Z,4.60
2018-07-08T03:23:14.347Z,4.80
2018-07-08T03:25:41.676Z,4.93
2018-07-08T03:28:08.986Z,5.70
2018-07-08T03:30:36.671Z,4.63
2018-07-08T03:33:04.914Z,7.23
2018-07-08T03:35:32.294Z,7.17
2018-07-08T03:37:59.728Z,7.93
2018-07-08T03:40:27.918Z,7.47
2018-07-08T03:42:55.313Z,7.37
2018-07-08T03:45:22.851Z,7.33
2018-07-08T03:47:50.252Z,8.50
2018-07-08T03:50:19.464Z,7.93
2018-07-08T03:52:46.781Z,7.87
2018-07-08T03:55:14.179Z,8.03
2018-07-08T03:57:41.549Z,7.90
2018-07-08T04:00:08.938Z,7.60
2018-07-08T04:02:40.368Z,8.20
2018-07-08T04:05:07.753Z,7.83
2018-07-08T04:07:36.713Z,7.67
2018-07-08T04:10:04.975Z,7.77
2018-07-08T04:12:32.268Z,8.23
2018-07-08T04:14:59.661Z,8.23
2018-07-08T04:17:28.410Z,7.57
2018-07-08T04:19:55.753Z,6.67
2018-07-08T04:22:23.172Z,7.67
2018-07-08T04:24:50.565Z,6.70
2018-07-08T04:27:17.968Z,5.57
2018-07-08T04:29:45.308Z,5.40
2018-07-08T04:32:12.679Z,5.60
2018-07-08T04:34:41.083Z,4.53
2018-07-08T04:37:08.485Z,4.40
2018-07-08T04:39:35.865Z,4.90
2018-07-08T04:42:03.492Z,4.67
2018-07-08T04:44:31.021Z,4.70
2018-07-08T04:47:00.296Z,4.33
2018-07-08T04:49:27.846Z,4.73
2018-07-08T04:51:55.480Z,4.47
2018-07-08T04:54:22.797Z,4.53
2018-07-08T04:56:50.179Z,4.00
2018-07-08T04:59:17.561Z,4.30
2018-07-08T05:01:44.952Z,4.10
2018-07-08T05:04:12.304Z,4.30
2018-07-08T05:06:39.617Z,4.17
2018-07-08T05:09:08.920Z,3.87
2018-07-08T05:11:36.226Z,3.97
2018-07-08T05:14:03.629Z,4.10
2018-07-08T05:16:31.002Z,3.23
2018-07-08T05:18:58.324Z,3.47
2018-07-08T05:21:25.691Z,3.60
2018-07-08T05:23:53.072Z,3.80
2018-07-08T05:26:20.885Z,4.30
2018-07-08T05:28:48.224Z,3.63
2018-07-08T05:31:15.582Z,3.50
2018-07-08T05:33:42.936Z,3.67
2018-07-08T05:36:14.617Z,4.20
2018-07-08T05:38:42.001Z,3.63
2018-07-08T05:41:09.599Z,4.07
2018-07-08T05:43:36.989Z,4.00
2018-07-08T05:46:04.418Z,3.50
2018-07-08T05:48:32.518Z,4.03
2018-07-08T05:50:59.834Z,3.60
2018-07-08T05:53:27.198Z,3.67
2018-07-08T05:55:54.658Z,3.47
2018-07-08T05:58:22.006Z,3.77
2018-07-08T06:00:49.376Z,3.43
2018-07-08T06:03:21.667Z,4.57
2018-07-08T06:05:49.018Z,3.30
2018-07-08T06:08:16.417Z,3.80
2018-07-08T06:10:44.576Z,3.77
2018-07-08T06:13:12.004Z,3.63
2018-07-08T06:15:39.341Z,3.10
2018-07-08T06:18:06.760Z,3.93
2018-07-08T06:20:36.978Z,3.40
2018-07-08T06:23:06.354Z,3.10
2018-07-08T06:25:33.741Z,3.97
2018-07-08T06:28:01.276Z,3.43
2018-07-08T06:30:30.050Z,3.50
2018-07-08T06:32:58.477Z,3.30
2018-07-08T06:35:25.957Z,3.37
2018-07-08T06:37:53.472Z,3.70
2018-07-08T06:40:20.828Z,4.00
2018-07-08T06:42:48.237Z,3.67
2018-07-08T06:45:15.645Z,2.90
2018-07-08T06:47:43.041Z,3.10
2018-07-08T06:50:10.459Z,3.00
2018-07-08T06:52:37.813Z,3.50
2018-07-08T06:55:05.193Z,3.43
2018-07-08T06:57:34.537Z,3.33
2018-07-08T07:00:01.916Z,3.40
2018-07-08T07:02:29.293Z,3.50
2018-07-08T07:04:59.445Z,3.70
2018-07-08T07:07:26.849Z,3.13
2018-07-08T07:09:54.221Z,3.17
2018-07-08T07:12:21.699Z,3.57
2018-07-08T07:14:51.866Z,3.20
2018-07-08T07:17:19.336Z,3.70
2018-07-08T07:19:46.750Z,3.40
2018-07-08T07:22:14.084Z,3.10
2018-07-08T07:24:47.560Z,3.13
2018-07-08T07:27:14.907Z,3.23
2018-07-08T07:29:42.390Z,3.07
2018-07-08T07:32:12.897Z,3.10
2018-07-08T07:34:40.961Z,3.33
2018-07-08T07:37:09.037Z,3.33
2018-07-08T07:39:37.196Z,3.33
2018-07-08T07:42:04.825Z,3.33
2018-07-08T07:44:32.257Z,3.63
2018-07-08T07:46:59.641Z,3.30
2018-07-08T07:49:27.223Z,3.33
2018-07-08T07:51:54.604Z,3.57
2018-07-08T07:54:22.952Z,3.23
2018-07-08T07:56:51.289Z,3.40
2018-07-08T07:59:19.591Z,3.17
2018-07-08T08:01:48.816Z,3.23
2018-07-08T08:04:17.015Z,3.00
2018-07-08T08:06:46.064Z,3.40
2018-07-08T08:09:15.997Z,3.27
2018-07-08T08:11:43.624Z,2.73
2018-07-08T08:14:11.277Z,3.20
2018-07-08T08:16:38.596Z,3.40
2018-07-08T08:19:05.934Z,3.20
2018-07-08T08:21:33.305Z,2.77
2018-07-08T08:24:00.707Z,3.10
2018-07-08T08:26:29.756Z,2.90
2018-07-08T08:28:57.216Z,3.07
2018-07-08T08:31:25.546Z,3.23
2018-07-08T08:35:02.617Z,3.53
2018-07-08T08:37:31.285Z,2.87
2018-07-08T08:39:58.697Z,3.27
2018-07-08T08:42:27.851Z,2.73
2018-07-08T08:44:56.013Z,3.30
2018-07-08T08:47:24.713Z,3.07
2018-07-08T08:49:59.848Z,2.60
2018-07-08T08:52:27.370Z,3.03
2018-07-08T08:54:55.879Z,2.60
2018-07-08T08:57:23.756Z,3.13
2018-07-08T08:59:51.223Z,2.80
2018-07-08T09:02:18.602Z,3.07
2018-07-08T09:04:46.076Z,2.40
2018-07-08T09:07:14.680Z,2.97
2018-07-08T09:09:42.268Z,3.40
2018-07-08T09:12:10.068Z,3.10
2018-07-08T09:14:37.943Z,2.90
2018-07-08T09:17:05.430Z,2.87
2018-07-08T09:19:32.823Z,3.20
2018-07-08T09:22:00.299Z,2.90
2018-07-08T09:24:27.705Z,2.80
2018-07-08T09:26:55.409Z,3.67
2018-07-08T09:29:24.924Z,2.77
2018-07-08T09:31:52.371Z,2.63
2018-07-08T09:34:20.002Z,2.83
2018-07-08T09:36:47.357Z,2.70
2018-07-08T09:39:15.671Z,2.80
2018-07-08T09:41:43.797Z,2.70
2018-07-08T09:44:12.235Z,2.80
2018-07-08T09:46:41.416Z,2.57
2018-07-08T09:49:08.858Z,2.73
2018-07-08T09:51:37.158Z,2.80
2018-07-08T09:54:04.712Z,2.80
2018-07-08T09:56:32.552Z,2.50
2018-07-08T09:59:00.155Z,2.80
2018-07-08T10:01:29.704Z,2.37
2018-07-08T10:03:57.059Z,2.47
2018-07-08T10:06:24.803Z,2.40
2018-07-08T10:08:54.912Z,2.40
2018-07-08T10:11:22.295Z,2.90
2018-07-08T10:13:50.254Z,2.57
2018-07-08T10:16:17.878Z,2.93
2018-07-08T10:18:45.279Z,2.77
2018-07-08T10:21:12.727Z,2.37
2018-07-08T10:23:40.100Z,2.80
2018-07-08T10:26:07.640Z,2.30
2018-07-08T10:28:37.851Z,2.53
2018-07-08T10:31:10.010Z,2.20
2018-07-08T10:33:42.843Z,2.40
2018-07-08T10:36:12.472Z,2.50
2018-07-08T10:38:39.947Z,3.10
2018-07-08T10:41:09.973Z,2.60
2018-07-08T10:43:37.480Z,2.77
2018-07-08T10:46:06.233Z,2.70
2018-07-08T10:48:33.903Z,2.20
2018-07-08T10:51:01.660Z,2.83
2018-07-08T10:53:30.953Z,2.67
2018-07-08T10:55:58.733Z,2.73
2018-07-08T10:58:26.166Z,2.30
2018-07-08T11:01:01.842Z,2.70
2018-07-08T11:03:29.597Z,2.30
2018-07-08T11:05:57.000Z,1.90
2018-07-08T11:08:24.446Z,2.60
2018-07-08T11:10:53.933Z,2.70
2018-07-08T11:13:21.340Z,2.20
2018-07-08T11:15:49.356Z,2.70
2018-07-08T11:18:16.930Z,2.20
2018-07-08T11:20:44.362Z,2.33
2018-07-08T11:23:11.921Z,2.33
2018-07-08T11:25:39.826Z,2.57
2018-07-08T11:28:08.229Z,2.20
2018-07-08T11:30:35.610Z,2.30
2018-07-08T11:33:03.011Z,2.43
2018-07-08T11:35:31.658Z,2.20
2018-07-08T11:38:00.845Z,2.20
2018-07-08T11:40:28.184Z,1.97
2018-07-08T11:42:56.229Z,2.20
2018-07-08T11:45:24.068Z,2.23
2018-07-08T11:47:51.670Z,2.30
2018-07-08T11:50:19.392Z,2.27
2018-07-08T11:52:48.698Z,2.53
2018-07-08T11:55:16.346Z,2.47
2018-07-08T11:57:43.875Z,2.70
2018-07-08T12:00:11.435Z,2.33
2018-07-08T12:02:39.849Z,2.20
2018-07-08T12:05:09.656Z,2.17
2018-07-08T12:07:37.076Z,2.00
2018-07-08T12:10:06.657Z,2.27
2018-07-08T12:12:35.072Z,2.60
2018-07-08T12:15:02.582Z,2.40
2018-07-08T12:17:30.199Z,2.70
2018-07-08T12:19:59.822Z,2.40
2018-07-08T12:22:28.438Z,2.30
2018-07-08T12:24:55.934Z,2.10
2018-07-08T12:27:25.538Z,2.40
2018-07-08T12:29:54.103Z,2.13
2018-07-08T12:32:21.587Z,2.40
2018-07-08T12:34:49.255Z,3.70
2018-07-08T12:37:18.530Z,2.50
2018-07-08T12:39:45.927Z,2.00
2018-07-08T12:42:13.918Z,3.17
2018-07-08T12:44:42.329Z,2.10
2018-07-08T12:47:09.895Z,2.70
2018-07-08T12:49:38.390Z,2.63
2018-07-08T12:52:06.319Z,2.20
2018-07-08T12:54:37.953Z,2.00
2018-07-08T12:57:05.521Z,2.07
2018-07-08T12:59:33.559Z,2.20
2018-07-08T13:02:01.206Z,2.60
2018-07-08T13:04:28.802Z,2.33
2018-07-08T13:06:56.440Z,2.40
2018-07-08T13:09:23.939Z,2.20
2018-07-08T13:11:52.590Z,2.03
2018-07-08T13:14:20.072Z,2.73
2018-07-08T13:16:47.834Z,2.03
2018-07-08T13:19:15.376Z,2.10
2018-07-08T13:21:47.412Z,1.57
2018-07-08T13:24:15.186Z,2.07
2018-07-08T13:26:43.231Z,1.67
2018-07-08T13:29:12.394Z,1.87
2018-07-08T13:31:41.168Z,1.70
2018-07-08T13:34:08.537Z,1.93
2018-07-08T13:36:36.120Z,1.80
2018-07-08T13:39:05.339Z,2.20
2018-07-08T13:41:32.799Z,1.70
2018-07-08T13:44:02.100Z,1.73
2018-07-08T13:46:32.583Z,1.70
2018-07-08T13:49:00.217Z,1.90
2018-07-08T13:51:28.187Z,2.10
2018-07-08T13:53:55.634Z,1.70
2018-07-08T13:56:23.393Z,1.57
2018-07-08T13:58:50.932Z,1.80
2018-07-08T14:01:18.412Z,1.73
2018-07-08T14:03:45.965Z,1.27
2018-07-08T14:06:13.383Z,1.80
2018-07-08T14:08:41.909Z,1.57
2018-07-08T14:11:09.458Z,1.63
2018-07-08T14:13:36.778Z,1.30
2018-07-08T14:16:05.015Z,1.53
2018-07-08T14:18:32.673Z,1.63
2018-07-08T14:21:00.954Z,1.50
2018-07-08T14:23:29.229Z,1.30
2018-07-08T14:25:58.677Z,1.23
2018-07-08T14:28:28.188Z,1.47
2018-07-08T14:30:55.694Z,1.60
2018-07-08T14:33:35.762Z,1.33
2018-07-08T14:36:03.122Z,1.57
2018-07-08T14:38:30.597Z,1.60
2018-07-08T14:40:58.130Z,1.50
2018-07-08T14:43:25.516Z,1.30
2018-07-08T14:45:53.866Z,1.40
2018-07-08T14:48:21.356Z,1.20
2018-07-08T14:50:48.809Z,1.17
2018-07-08T14:53:16.193Z,1.47
2018-07-08T14:55:44.097Z,1.40
2018-07-08T14:58:11.552Z,1.30
2018-07-08T15:00:39.016Z,1.57
2018-07-08T15:03:06.474Z,1.10
2018-07-08T15:05:33.827Z,1.40
2018-07-08T15:08:01.377Z,1.33
2018-07-08T15:10:28.912Z,1.27
2018-07-08T15:12:58.482Z,1.30
2018-07-08T15:15:25.859Z,1.10
2018-07-08T15:17:53.211Z,1.27
2018-07-08T15:20:20.697Z,1.23
2018-07-08T15:22:48.090Z,1.10
2018-07-08T15:25:15.557Z,1.10
2018-07-08T15:27:42.943Z,1.00
2018-07-08T15:30:13.374Z,1.10
2018-07-08T15:32:40.813Z,1.50
2018-07-08T15:35:08.203Z,1.43
2018-07-08T15:37:35.679Z,1.03
2018-07-08T15:40:04.077Z,1.13
2018-07-08T15:42:31.643Z,1.30
2018-07-08T15:44:59.036Z,0.90
2018-07-08T15:47:26.592Z,1.27
2018-07-08T15:49:54.991Z,0.93
2018-07-08T15:52:24.287Z,1.20
2018-07-08T15:54:52.766Z,1.37
2018-07-08T15:57:21.790Z,1.10
2018-07-08T15:59:53.137Z,1.13
2018-07-08T16:02:23.014Z,1.03
2018-07-08T16:04:51.228Z,1.00
2018-07-08T16:07:18.625Z,1.10
2018-07-08T16:09:45.961Z,1.20
2018-07-08T16:12:13.432Z,1.30
2018-07-08T16:14:40.974Z,1.23
2018-07-08T16:17:08.406Z,1.03
2018-07-08T16:19:39.126Z,1.37
2018-07-08T16:22:07.428Z,1.20
2018-07-08T16:24:36.750Z,1.47
2018-07-08T16:27:04.416Z,1.60
2018-07-08T16:29:31.861Z,1.00
2018-07-08T16:32:00.094Z,1.30
2018-07-08T16:34:29.516Z,1.20
2018-07-08T16:36:58.917Z,1.37
2018-07-08T16:39:26.281Z,1.20
2018-07-08T16:41:53.711Z,1.60
2018-07-08T16:44:22.027Z,1.33
2018-07-08T16:46:50.529Z,1.03
2018-07-08T16:49:17.923Z,1.57
2018-07-08T16:51:45.428Z,1.43
2018-07-08T16:54:13.000Z,1.20
2018-07-08T16:56:40.675Z,1.77
2018-07-08T16:59:08.153Z,1.20
2018-07-08T17:01:35.734Z,1.10
2018-07-08T17:04:03.181Z,1.13
2018-07-08T17:06:30.535Z,1.50
2018-07-08T17:08:57.976Z,1.20
2018-07-08T17:11:25.394Z,1.40
2018-07-08T17:13:55.798Z,1.50
2018-07-08T17:16:24.076Z,1.53
2018-07-08T17:18:51.731Z,1.60
2018-07-08T17:21:19.092Z,1.30
2018-07-08T17:23:46.474Z,1.40
2018-07-08T17:26:14.616Z,1.30
2018-07-08T17:28:42.278Z,1.60
2018-07-08T17:31:09.758Z,1.43
2018-07-08T17:33:37.304Z,1.60
2018-07-08T17:36:04.815Z,1.37
2018-07-08T17:38:32.291Z,1.37
2018-07-08T17:41:00.410Z,1.30
2018-07-08T17:43:27.801Z,1.80
2018-07-08T17:45:55.195Z,1.30
2018-07-08T17:48:22.630Z,1.20
2018-07-08T17:50:51.672Z,1.00
2018-07-08T17:53:19.224Z,1.47
2018-07-08T17:55:46.782Z,1.43
2018-07-08T17:58:14.249Z,1.63
2018-07-08T18:00:41.711Z,1.50
2018-07-08T18:03:09.233Z,1.23
2018-07-08T18:05:36.613Z,1.70
2018-07-08T18:08:04.714Z,1.40
2018-07-08T18:10:32.255Z,1.53
2018-07-08T18:12:59.715Z,1.50
2018-07-08T18:15:27.154Z,1.20
2018-07-08T18:17:57.659Z,1.60
2018-07-08T18:20:25.235Z,1.10
2018-07-08T18:22:53.080Z,1.73
2018-07-08T18:25:20.583Z,1.20
2018-07-08T18:27:48.040Z,1.50
2018-07-08T18:30:15.524Z,1.47
2018-07-08T18:32:43.012Z,1.37
2018-07-08T18:35:10.465Z,1.33
2018-07-08T18:37:37.917Z,1.07
2018-07-08T18:40:05.279Z,1.50
2018-07-08T18:42:33.560Z,1.30
2018-07-08T18:45:01.093Z,1.40
2018-07-08T18:47:28.705Z,1.40
2018-07-08T18:49:56.068Z,1.50
2018-07-08T18:52:24.518Z,1.20
2018-07-08T18:54:51.889Z,1.50
2018-07-08T18:57:19.316Z,1.43
2018-07-08T18:59:46.714Z,1.30
2018-07-08T19:02:14.616Z,1.70
2018-07-08T19:04:42.049Z,1.40
2018-07-08T19:07:09.547Z,1.70
2018-07-08T19:09:37.077Z,1.27
2018-07-08T19:12:05.604Z,1.70
2018-07-08T19:14:33.048Z,2.00
2018-07-08T19:17:00.620Z,1.53
2018-07-08T19:19:28.084Z,1.80
2018-07-08T19:21:55.500Z,1.53
2018-07-08T19:24:22.898Z,1.90
2018-07-08T19:26:50.240Z,1.90
2018-07-08T19:29:17.797Z,1.60
2018-07-08T19:31:45.188Z,1.47
2018-07-08T19:34:12.630Z,1.73
2018-07-08T19:36:40.050Z,1.50
2018-07-08T19:39:08.916Z,1.40
2018-07-08T19:41:36.860Z,1.63
2018-07-08T19:44:04.376Z,1.47
2018-07-08T19:46:32.108Z,1.23
2018-07-08T19:48:59.557Z,1.50
2018-07-08T19:51:27.037Z,1.60
2018-07-08T19:53:55.107Z,1.73
2018-07-08T19:56:22.540Z,1.57
2018-07-08T19:58:50.125Z,1.87
2018-07-08T20:01:17.655Z,1.83
2018-07-08T20:03:45.971Z,1.53
2018-07-08T20:06:13.328Z,1.83
2018-07-08T20:08:40.673Z,2.07
2018-07-08T20:11:08.096Z,1.40
2018-07-08T20:13:35.486Z,2.00
2018-07-08T20:16:02.957Z,1.70
2018-07-08T20:18:30.377Z,1.80
2018-07-08T20:20:57.774Z,1.63
2018-07-08T20:23:25.160Z,1.60
2018-07-08T20:25:52.704Z,1.90
2018-07-08T20:28:20.331Z,2.03
2018-07-08T20:30:47.784Z,1.40
2018-07-08T20:33:15.233Z,1.80
2018-07-08T20:35:42.689Z,1.97
2018-07-08T20:38:10.080Z,2.10
2018-07-08T20:40:37.813Z,2.23
2018-07-08T20:43:05.325Z,1.90
2018-07-08T20:45:32.860Z,2.57
2018-07-08T20:48:00.464Z,1.97
2018-07-08T20:50:27.856Z,1.97
2018-07-08T20:52:55.404Z,2.40
2018-07-08T20:55:22.788Z,2.70
2018-07-08T20:57:50.425Z,3.87
2018-07-08T21:00:17.827Z,4.80
2018-07-08T21:02:45.189Z,7.20
2018-07-08T21:05:12.600Z,13.80
2018-07-08T21:07:40.041Z,11.50
2018-07-08T21:10:08.176Z,9.63
2018-07-08T21:12:35.598Z,9.40
2018-07-08T21:15:03.563Z,8.63
2018-07-08T21:17:30.991Z,7.63
2018-07-08T21:19:58.357Z,7.53
2018-07-08T21:22:25.800Z,6.90
2018-07-08T21:24:53.177Z,7.33
2018-07-08T21:27:20.522Z,8.03
2018-07-08T21:29:47.987Z,6.30
2018-07-08T21:32:15.754Z,6.40
2018-07-08T21:34:43.154Z,6.33
2018-07-08T21:37:10.537Z,6.10
2018-07-08T21:39:37.964Z,5.53
2018-07-08T21:42:05.493Z,4.63
2018-07-08T21:44:33.078Z,3.53
2018-07-08T21:47:00.473Z,3.70
2018-07-08T21:49:27.841Z,2.70
2018-07-08T21:51:55.216Z,2.60
2018-07-08T21:54:22.549Z,2.90
2018-07-08T21:56:49.986Z,2.77
2018-07-08T21:59:17.447Z,2.57
2018-07-08T22:01:56.473Z,2.30
2018-07-08T22:04:23.850Z,2.43
2018-07-08T22:06:51.258Z,2.60
2018-07-08T22:09:18.594Z,2.87
2018-07-08T22:11:46.213Z,2.70
2018-07-08T22:14:13.643Z,3.03
2018-07-08T22:16:41.134Z,2.90
2018-07-08T22:19:08.513Z,2.73
2018-07-08T22:21:35.891Z,3.27
2018-07-08T22:24:03.263Z,2.97
2018-07-08T22:26:30.623Z,2.80
2018-07-08T22:28:58.139Z,2.70
2018-07-08T22:31:25.587Z,3.10
2018-07-08T22:33:53.609Z,2.83
2018-07-08T22:36:20.951Z,2.47
2018-07-08T22:38:48.439Z,3.07
2018-07-08T22:41:16.124Z,2.90
2018-07-08T22:43:43.533Z,2.93
2018-07-08T22:46:11.615Z,2.77
2018-07-08T22:48:38.936Z,2.33
2018-07-08T22:51:06.521Z,2.60
2018-07-08T22:53:33.918Z,2.70
2018-07-08T22:56:01.345Z,3.10
2018-07-08T22:58:28.710Z,2.53
2018-07-08T23:01:01.628Z,2.60
2018-07-08T23:04:03.422Z,3.00
2018-07-08T23:06:31.238Z,2.10
2018-07-08T23:08:58.669Z,2.50
2018-07-08T23:11:26.768Z,2.43
2018-07-08T23:13:55.123Z,2.33
2018-07-08T23:16:23.025Z,2.70
2018-07-08T23:18:50.484Z,1.97
2018-07-08T23:21:17.870Z,2.40
2018-07-08T23:23:45.323Z,2.73
2018-07-08T23:26:12.824Z,2.50
2018-07-08T23:28:40.178Z,2.53
2018-07-08T23:31:08.079Z,2.50
2018-07-08T23:33:35.468Z,2.00
2018-07-08T23:36:04.548Z,2.40
2018-07-08T23:38:32.266Z,1.93
2018-07-08T23:41:00.353Z,2.57
2018-07-08T23:43:27.826Z,2.70
2018-07-08T23:45:55.177Z,2.93
2018-07-08T23:48:22.615Z,2.40
2018-07-08T23:50:49.985Z,2.60
2018-07-08T23:53:17.326Z,2.70
2018-07-08T23:55:44.685Z,2.40
2018-07-08T23:58:12.045Z,2.27
